Time;durP1;ratioP1;P1;durP2;ratioP2;P2;SDS_P1;SDS_P2;PMS_P1;PMS_P2;Temp;Humidity;BMP_temperature;BMP_pressure;BME280_temperature;BME280_humidity;BME280_pressure;Samples;Min_cycle;Max_cycle;Signal;HPM_P1;HPM_P2
2022/03/17 00:00:48;;;;;;;0.20;0.20;;;7.60;99.90;;;7.16;100.00;101068.88;5012394;28;20219;-78
2022/03/17 00:03:16;;;;;;;0.10;0.10;;;7.50;99.90;;;7.20;100.00;101090.09;5028800;28;20208;-79
2022/03/17 00:05:44;;;;;;;0.20;0.20;;;7.50;99.90;;;7.13;100.00;101101.25;5011108;28;20204;-78
2022/03/17 00:08:12;;;;;;;0.10;0.10;;;7.40;99.90;;;7.11;100.00;101095.03;5012759;28;20204;-78
2022/03/17 00:10:40;;;;;;;0.10;0.10;;;7.50;99.90;;;7.38;100.00;101117.00;5012432;28;20231;-78
2022/03/17 00:13:08;;;;;;;0.25;0.25;;;7.40;99.90;;;7.47;100.00;101104.97;5012478;28;20699;-78
2022/03/17 00:15:40;;;;;;;0.20;0.20;;;7.50;99.90;;;7.23;100.00;101091.91;5012496;28;20214;-78
2022/03/17 00:18:08;;;;;;;0.20;0.20;;;7.40;99.90;;;7.14;100.00;101100.41;5012832;28;20235;-78
2022/03/17 00:20:37;;;;;;;0.10;0.10;;;7.40;99.90;;;7.21;100.00;101104.13;5012463;28;20227;-78
2022/03/17 00:23:05;;;;;;;0.30;0.30;;;7.40;99.90;;;7.14;100.00;101099.50;5012644;28;20204;-78
2022/03/17 00:25:34;;;;;;;0.20;0.20;;;7.40;99.90;;;7.23;100.00;101116.50;5012380;28;20204;-78
2022/03/17 00:28:02;;;;;;;0.20;0.20;;;7.40;99.90;;;7.16;100.00;101106.59;5012944;28;20204;-78
2022/03/17 00:30:30;;;;;;;0.20;0.20;;;7.40;99.90;;;7.33;100.00;101120.31;5010625;28;20711;-78
2022/03/17 00:32:58;;;;;;;0.20;0.20;;;7.40;99.90;;;7.47;100.00;101121.66;5012365;28;20204;-78
2022/03/17 00:35:35;;;;;;;0.20;0.20;;;7.50;99.90;;;7.54;100.00;101107.84;5011899;28;20212;-78
2022/03/17 00:38:07;;;;;;;0.10;0.10;;;7.50;99.90;;;7.39;100.00;101088.94;5011096;28;20204;-78
2022/03/17 00:40:38;;;;;;;0.20;0.20;;;7.50;99.90;;;7.37;100.00;101091.53;5008175;28;20730;-78
2022/03/17 00:43:12;;;;;;;0.10;0.10;;;7.60;99.90;;;7.44;100.00;101083.81;5012113;28;20207;-78
2022/03/17 00:45:44;;;;;;;0.30;0.30;;;7.60;99.90;;;7.53;100.00;101087.66;5010869;28;20214;-78
2022/03/17 00:48:12;;;;;;;0.10;0.10;;;7.50;99.90;;;7.43;100.00;101069.78;5012063;28;20204;-78
2022/03/17 00:50:40;;;;;;;0.20;0.20;;;7.50;99.90;;;7.46;100.00;101066.34;5011617;28;20223;-78
2022/03/17 00:53:08;;;;;;;1.10;0.52;;;7.50;99.90;;;7.44;100.00;101076.81;5027269;28;20227;-78
2022/03/17 00:55:36;;;;;;;0.20;0.20;;;7.50;99.90;;;7.36;100.00;101055.53;5012095;28;20200;-78
2022/03/17 00:58:04;;;;;;;0.20;0.20;;;;;;;7.48;100.00;101067.28;5011526;28;20215;-78
2022/03/17 01:00:32;;;;;;;0.20;0.20;;;7.50;99.90;;;7.34;100.00;101046.69;4994046;28;20224;-78
2022/03/17 01:03:01;;;;;;;0.10;0.10;;;7.50;99.90;;;7.26;100.00;101057.81;5011764;28;20219;-78
2022/03/17 01:05:29;;;;;;;0.20;0.20;;;7.50;99.90;;;7.30;100.00;101076.38;4993385;28;20212;-78
2022/03/17 01:07:57;;;;;;;0.13;0.13;;;7.40;99.90;;;7.26;100.00;101076.25;5012054;28;20212;-78
2022/03/17 01:10:25;;;;;;;0.20;0.20;;;7.50;99.90;;;7.39;100.00;101084.56;5010143;28;20243;-78
2022/03/17 01:12:53;;;;;;;0.20;0.20;;;7.50;99.90;;;7.33;100.00;101072.97;5009947;28;20204;-78
2022/03/17 01:15:21;;;;;;;0.10;0.10;;;7.50;99.90;;;7.29;100.00;101073.72;5012593;28;20242;-78
2022/03/17 01:17:50;;;;;;;0.35;0.35;;;7.50;99.90;;;7.33;100.00;101080.84;5011564;28;20200;-78
2022/03/17 01:20:18;;;;;;;0.10;0.10;;;7.50;99.90;;;7.42;100.00;101081.16;5006042;28;20228;-78
2022/03/17 01:22:46;;;;;;;0.10;0.10;;;7.50;99.90;;;7.37;100.00;101065.22;5011779;28;20215;-78
2022/03/17 01:25:14;;;;;;;0.20;0.20;;;7.60;99.90;;;7.14;100.00;101068.84;5011723;28;20200;-78
2022/03/17 01:27:42;;;;;;;0.20;0.20;;;7.50;99.90;;;7.06;100.00;101084.38;5011870;28;20200;-78
2022/03/17 01:30:11;;;;;;;0.52;0.52;;;7.40;99.90;;;7.22;100.00;101105.91;5012150;28;20235;-78
2022/03/17 01:32:39;;;;;;;0.20;0.20;;;7.40;99.90;;;7.16;100.00;101095.19;5011347;28;20211;-78
2022/03/17 01:35:09;;;;;;;0.30;0.30;;;7.40;99.90;;;7.18;100.00;101102.28;5012034;28;20242;-78
2022/03/17 01:37:38;;;;;;;0.30;0.30;;;7.40;99.90;;;7.23;100.00;101113.88;5010202;28;20219;-78
2022/03/17 01:40:10;;;;;;;1.20;1.20;;;7.40;99.90;;;7.28;100.00;101112.28;5010281;28;20231;-78
2022/03/17 01:42:39;;;;;;;0.20;0.20;;;7.40;99.90;;;7.16;100.00;101095.19;5011326;28;20214;-78
2022/03/17 01:45:09;;;;;;;0.20;0.20;;;7.40;99.90;;;7.17;100.00;101103.13;5011532;28;20223;-78
2022/03/17 01:47:37;;;;;;;0.20;0.20;;;7.40;99.90;;;7.24;100.00;101115.66;5008781;28;20211;-78
2022/03/17 01:50:13;;;;;;;0.13;0.13;;;7.50;99.90;;;7.26;100.00;101110.44;5015444;28;20223;-78
2022/03/17 01:52:42;;;;;;;0.20;0.20;;;7.50;99.90;;;7.39;100.00;101102.09;5015868;28;20203;-79
2022/03/17 01:55:12;;;;;;;0.20;0.20;;;7.40;99.90;;;7.35;100.00;101098.47;5015581;28;20692;-78
2022/03/17 01:57:41;;;;;;;0.15;0.15;;;7.40;99.90;;;7.26;100.00;101086.75;5014438;28;20208;-78
2022/03/17 02:00:19;;;;;;;0.20;0.20;;;7.40;99.90;;;7.25;100.00;101096.38;5014530;28;20227;-78
2022/03/17 02:02:49;;;;;;;0.10;0.10;;;7.40;99.90;;;7.35;100.00;101102.84;5015820;28;20218;-78
2022/03/17 02:05:19;;;;;;;0.20;0.20;;;7.40;99.90;;;7.41;100.00;101097.78;5004491;28;20796;-78
2022/03/17 02:07:49;;;;;;;0.22;0.22;;;7.40;99.90;;;7.45;100.00;101093.50;5015441;28;20211;-78
2022/03/17 02:10:18;;;;;;;0.30;0.30;;;7.40;99.90;;;7.53;100.00;101095.53;5015359;28;20220;-78
2022/03/17 02:15:34;;;;;;;0.32;0.32;;;7.50;99.90;;;7.64;100.00;101091.50;5038456;28;20232;-78
2022/03/17 02:18:08;;;;;;;0.20;0.20;;;7.60;99.90;;;7.59;100.00;101077.31;5015140;28;20218;-78
2022/03/17 02:20:36;;;;;;;0.20;0.20;;;7.60;99.90;;;7.63;100.00;101075.66;5014634;28;20228;-78
2022/03/17 02:26:00;;;;;;;0.20;0.20;;;7.70;99.90;;;7.43;100.00;101066.25;5004536;28;20211;-78
2022/03/17 02:28:31;;;;;;;0.10;0.10;;;7.60;99.90;;;7.59;100.00;101081.69;5015255;28;20196;-78
2022/03/17 02:31:02;;;;;;;0.17;0.17;;;7.70;99.90;;;7.42;100.00;101064.47;5014622;28;20235;-78
2022/03/17 02:33:30;;;;;;;0.22;0.22;;;7.60;99.90;;;7.29;100.00;101085.13;5015188;28;20576;-78
2022/03/17 02:35:58;;;;;;;0.20;0.20;;;7.60;99.90;;;7.64;100.00;101109.03;5015284;28;20234;-78
2022/03/17 02:38:26;;;;;;;0.20;0.20;;;7.60;99.90;;;7.49;100.00;101093.66;5013015;28;20200;-78
2022/03/17 02:40:54;;;;;;;0.73;0.70;;;;;;;7.22;100.00;101082.25;5040842;22;20231;-76
2022/03/17 02:43:22;;;;;;;0.15;0.15;;;;;;;7.18;100.00;101101.41;5014031;28;20223;-76
2022/03/17 02:45:51;;;;;;;0.20;0.20;;;;;;;7.22;100.00;101116.44;5015864;28;20200;-77
2022/03/17 02:48:19;;;;;;;0.20;0.20;;;;;;;7.37;100.00;101138.88;5028822;28;20203;-76
2022/03/17 02:50:48;;;;;;;0.20;0.20;;;;;;;7.48;100.00;101141.88;4996969;28;20727;-76
2022/03/17 02:53:17;;;;;;;0.43;0.43;;;7.60;99.90;;;7.99;100.00;101169.00;5013893;28;20196;-77
2022/03/17 02:55:45;;;;;;;0.20;0.20;;;;;;;7.97;100.00;101114.50;4996983;28;20228;-76
2022/03/17 02:58:14;;;;;;;0.20;0.20;;;;;;;7.76;100.00;101092.72;4994055;28;20208;-73
2022/03/17 03:00:43;;;;;;;0.20;0.20;;;;;;;7.58;100.00;101099.22;5013873;28;20220;-74
2022/03/17 03:03:13;;;;;;;0.40;0.40;;;7.80;99.90;;;7.45;100.00;101112.81;5013614;28;20211;-73
2022/03/17 03:05:42;;;;;;;0.20;0.20;;;;;;;7.55;100.00;101129.81;5013688;28;20415;-73
2022/03/17 03:08:10;;;;;;;0.28;0.28;;;;;;;8.04;100.00;101142.81;5009043;28;20201;-73
2022/03/17 03:10:38;;;;;;;0.20;0.20;;;;;;;8.01;100.00;101109.34;5013280;28;20232;-76
2022/03/17 03:13:06;;;;;;;0.10;0.10;;;7.80;99.90;;;7.82;100.00;101085.06;5013113;28;20204;-75
2022/03/17 03:15:35;;;;;;;0.10;0.10;;;;;;;7.62;100.00;101095.81;4977031;28;20224;-76
2022/03/17 03:18:02;;;;;;;0.20;0.20;;;7.90;99.90;;;7.58;100.00;101103.59;5009626;28;20204;-76
2022/03/17 03:20:31;;;;;;;0.20;0.20;;;7.90;99.90;;;7.76;100.00;101119.94;4975662;28;20216;-78
2022/03/17 03:22:59;;;;;;;0.20;0.20;;;7.80;99.90;;;7.70;100.00;101111.88;5012402;28;20196;-78
2022/03/17 03:25:27;;;;;;;0.10;0.10;;;7.80;99.90;;;7.89;100.00;101113.38;4996398;28;20219;-74
2022/03/17 03:27:55;;;;;;;0.20;0.20;;;7.80;99.90;;;7.91;100.00;101106.41;5012389;28;20196;-75
2022/03/17 03:30:23;;;;;;;0.20;0.20;;;7.90;99.90;;;7.70;100.00;101091.69;4996288;28;20239;-74
2022/03/17 03:32:51;;;;;;;0.10;0.10;;;7.90;99.90;;;7.86;100.00;101108.88;4996221;28;20200;-74
2022/03/17 03:38:05;;;;;;;0.20;0.20;;;8.00;99.90;;;7.95;100.00;101110.91;4998290;28;20200;-75
2022/03/17 03:40:33;;;;;;;0.10;0.10;;;7.90;99.90;;;7.96;100.00;101105.69;4995884;28;20228;-74
2022/03/17 03:43:01;;;;;;;0.20;0.20;;;7.90;99.90;;;7.92;100.00;101106.44;5013516;28;20234;-74
2022/03/17 03:45:29;;;;;;;0.30;0.30;;;7.90;99.90;;;8.00;100.00;101107.56;4995604;28;20215;-74
2022/03/17 03:47:57;;;;;;;0.20;0.20;;;7.90;99.90;;;7.97;100.00;101115.38;5012471;28;20200;-74
2022/03/17 03:50:25;;;;;;;0.10;0.10;;;7.90;99.90;;;7.94;100.00;101103.84;5012903;28;20228;-74
2022/03/17 03:52:53;;;;;;;0.20;0.20;;;7.90;99.90;;;8.01;100.00;101112.00;5013110;28;20203;-74
2022/03/17 03:55:22;;;;;;;0.20;0.20;;;7.90;99.90;;;7.97;100.00;101110.13;4992210;28;20235;-74
2022/03/17 03:57:51;;;;;;;0.20;0.20;;;7.90;99.90;;;7.90;100.00;101117.78;5006939;28;20204;-74
2022/03/17 04:03:03;;;;;;;0.20;0.20;;;7.90;99.90;;;7.91;100.00;101116.94;5008522;28;20200;-74
2022/03/17 04:05:37;;;;;;;0.43;0.43;;;7.90;99.90;;;7.82;100.00;101106.13;5013159;28;20200;-74
2022/03/17 04:08:05;;;;;;;0.20;0.20;;;7.90;99.90;;;7.84;100.00;101122.84;5009116;28;20204;-74
2022/03/17 04:10:33;;;;;;;0.20;0.20;;;7.90;99.90;;;7.81;100.00;101120.13;4994895;28;20243;-77
2022/03/17 04:13:02;;;;;;;0.20;0.20;;;7.90;99.90;;;7.95;100.00;101121.44;4995606;28;20204;-76
2022/03/17 04:15:30;;;;;;;0.10;0.10;;;7.90;99.90;;;7.96;100.00;101110.06;5012715;28;20232;-77
2022/03/17 04:17:58;;;;;;;0.10;0.10;;;7.90;99.90;;;7.89;100.00;101106.34;5011972;28;20204;-76
2022/03/17 04:20:26;;;;;;;0.20;0.20;;;8.00;99.90;;;7.89;100.00;101108.09;4994609;28;20231;-75
2022/03/17 04:22:54;;;;;;;0.10;0.10;;;7.90;99.90;;;7.88;100.00;101112.47;5012366;28;20219;-77
2022/03/17 04:25:22;;;;;;;0.20;0.20;;;7.90;99.90;;;7.87;100.00;101117.69;5011517;28;20207;-74
2022/03/17 04:27:51;;;;;;;0.20;0.20;;;7.90;99.90;;;7.88;100.00;101124.75;5010755;28;20215;-74
2022/03/17 04:30:19;;;;;;;0.20;0.20;;;7.90;99.90;;;7.92;100.00;101122.25;5009325;28;20731;-75
2022/03/17 04:32:47;;;;;;;0.25;0.25;;;7.90;99.90;;;7.96;100.00;101116.22;5011711;28;20196;-74
2022/03/17 04:35:15;;;;;;;0.20;0.20;;;7.60;99.90;;;7.88;100.00;101109.84;4994402;28;20208;-74
2022/03/17 04:37:43;;;;;;;0.20;0.20;;;8.00;99.90;;;7.85;100.00;101122.00;5008145;28;20216;-75
2022/03/17 04:40:12;;;;;;;0.40;0.40;;;8.00;99.90;;;7.86;100.00;101108.00;5011647;28;20614;-74
2022/03/17 04:42:39;;;;;;;0.20;0.20;;;8.00;99.90;;;7.81;100.00;101115.75;5008048;28;20228;-75
2022/03/17 04:45:08;;;;;;;0.20;0.20;;;7.90;99.90;;;7.89;100.00;101124.78;5006705;28;20214;-75
2022/03/17 04:47:36;;;;;;;0.30;0.30;;;7.90;99.90;;;7.86;100.00;101129.06;5008999;28;20204;-74
2022/03/17 04:50:06;;;;;;;0.20;0.20;;;7.90;99.90;;;7.79;100.00;101127.06;4989847;28;20224;-73
2022/03/17 04:55:21;;;;;;;0.20;0.20;;;8.00;99.90;;;7.80;100.00;101140.31;5006737;28;20196;-75
2022/03/17 04:57:51;;;;;;;0.20;0.20;;;7.90;99.90;;;7.85;100.00;101141.34;5010261;28;20211;-75
2022/03/17 05:00:19;;;;;;;0.10;0.10;;;8.00;99.90;;;7.76;100.00;101133.13;5011693;28;20235;-74
2022/03/17 05:02:47;;;;;;;0.20;0.20;;;8.00;99.90;;;7.83;100.00;101148.28;5011414;28;20219;-74
2022/03/17 05:05:15;;;;;;;0.40;0.40;;;8.00;99.90;;;7.86;100.00;101140.50;5011435;28;20207;-74
2022/03/17 05:07:57;;;;;;;0.20;0.20;;;8.00;99.90;;;7.88;100.00;101144.06;5008600;28;20200;-76
2022/03/17 05:10:29;;;;;;;0.20;0.20;;;8.00;99.90;;;7.69;100.00;101141.66;5009534;28;20228;-75
2022/03/17 05:13:04;;;;;;;0.40;0.40;;;8.00;99.90;;;7.62;100.00;101153.75;5008331;28;20214;-74
2022/03/17 05:15:33;;;;;;;0.20;0.20;;;;;;;7.71;100.00;101158.41;5012021;28;20210;-74
2022/03/17 05:18:07;;;;;;;0.10;0.10;;;7.90;99.90;;;7.70;100.00;101157.50;5010938;28;20701;-74
2022/03/17 05:20:37;;;;;;;0.17;0.17;;;7.90;99.90;;;7.62;100.00;101153.75;5008578;28;20684;-75
2022/03/17 05:23:14;;;;;;;0.20;0.20;;;7.90;99.90;;;7.61;100.00;101161.59;5006084;28;20203;-75
2022/03/17 05:25:44;;;;;;;0.10;0.10;;;7.90;99.90;;;7.68;100.00;101167.09;4992634;28;20235;-75
2022/03/17 05:28:12;;;;;;;0.10;0.10;;;7.90;99.90;;;7.77;100.00;101174.41;5010182;28;20204;-75
2022/03/17 05:30:42;;;;;;;0.20;0.20;;;7.90;99.90;;;7.74;100.00;101162.88;4992259;28;20243;-77
2022/03/17 05:33:11;;;;;;;0.20;0.20;;;7.90;99.90;;;7.76;100.00;101175.25;5009853;28;20203;-76
2022/03/17 05:35:41;;;;;;;0.10;0.10;;;7.90;99.90;;;7.74;100.00;101171.66;5006306;28;20207;-75
2022/03/17 05:38:10;;;;;;;0.20;0.20;;;7.80;99.90;;;7.79;100.00;101159.53;4990098;28;20216;-75
2022/03/17 05:40:41;;;;;;;0.20;0.20;;;7.90;99.90;;;7.73;100.00;101161.97;5004578;28;20235;-74
2022/03/17 05:43:10;;;;;;;0.20;0.20;;;7.90;99.90;;;7.78;100.00;101176.19;4989887;28;20216;-73
2022/03/17 05:45:41;;;;;;;0.20;0.20;;;7.90;99.90;;;7.75;100.00;101183.09;5009454;28;20204;-73
2022/03/17 05:48:10;;;;;;;0.20;0.20;;;;;;;7.76;100.00;101175.25;5008801;28;20208;-74
2022/03/17 05:50:41;;;;;;;0.20;0.20;;;7.80;99.90;;;7.85;100.00;101183.47;5003507;28;20238;-78
2022/03/17 05:53:10;;;;;;;0.40;0.40;;;;;;;7.87;100.00;101184.41;5009940;28;20212;-78
2022/03/17 05:55:38;;;;;;;0.10;0.10;;;7.90;99.90;;;7.74;100.00;101178.69;4992198;28;20223;-76
2022/03/17 05:58:07;;;;;;;0.20;0.20;;;7.90;99.90;;;7.72;100.00;101184.78;5003852;28;20234;-76
2022/03/17 06:00:35;;;;;;;0.20;0.20;;;7.90;99.90;;;7.83;100.00;101189.53;5003711;28;20219;-77
2022/03/17 06:03:04;;;;;;;0.20;0.20;;;7.90;99.90;;;7.84;100.00;101184.31;5002348;28;20211;-76
2022/03/17 06:05:32;;;;;;;0.10;0.10;;;7.90;99.90;;;7.80;100.00;101181.50;5001269;28;20207;-77
2022/03/17 06:08:00;;;;;;;0.20;0.20;;;7.90;99.90;;;7.89;100.00;101189.72;5005776;28;20212;-76
2022/03/17 06:10:34;;;;;;;0.25;0.25;;;8.00;99.90;;;7.96;100.00;101194.34;5001411;28;20613;-77
2022/03/17 06:13:05;;;;;;;0.10;0.10;;;8.00;99.90;;;7.84;100.00;101179.06;5008505;28;20204;-77
2022/03/17 06:15:34;;;;;;;0.10;0.10;;;8.00;99.90;;;7.84;100.00;101199.22;5009981;28;20204;-76
2022/03/17 06:18:05;;;;;;;0.13;0.13;;;8.00;99.90;;;7.88;100.00;101188.84;4974733;28;20258;-76
2022/03/17 06:20:36;;;;;;;0.20;0.20;;;8.00;99.90;;;7.93;100.00;101197.78;5009086;28;20231;-76
2022/03/17 06:23:06;;;;;;;0.20;0.20;;;8.00;99.90;;;7.99;100.00;101195.34;5008898;28;20584;-77
2022/03/17 06:25:36;;;;;;;0.20;0.20;;;8.10;99.90;;;8.01;100.00;101200.66;5009761;28;20220;-76
2022/03/17 06:28:09;;;;;;;0.20;0.20;;;8.00;99.90;;;7.96;100.00;101195.25;5009271;28;20219;-77
2022/03/17 06:30:37;;;;;;;0.30;0.30;;;8.10;99.90;;;7.95;100.00;101206.63;4991878;28;20235;-77
2022/03/17 06:33:07;;;;;;;0.20;0.20;;;8.10;99.90;;;7.87;100.00;101216.03;5009499;28;20211;-77
2022/03/17 06:35:35;;;;;;;0.20;0.20;;;8.10;99.90;;;7.91;100.00;101230.19;5012651;28;20208;-77
2022/03/17 06:38:06;;;;;;;0.20;0.20;;;8.10;99.90;;;7.90;100.00;101229.28;5012624;28;20231;-77
2022/03/17 06:40:35;;;;;;;0.20;0.20;;;8.10;99.90;;;7.94;100.00;101233.81;5013006;28;20220;-77
2022/03/17 06:43:04;;;;;;;0.20;0.20;;;8.20;99.90;;;7.97;100.00;101233.91;5012220;28;20223;-77
2022/03/17 06:45:32;;;;;;;0.32;0.32;;;8.20;99.90;;;8.01;100.00;101232.25;5012121;28;20196;-77
2022/03/17 06:48:00;;;;;;;0.20;0.20;;;8.20;99.90;;;7.97;100.00;101244.44;5011927;28;20211;-77
2022/03/17 06:50:28;;;;;;;0.10;0.10;;;8.20;99.90;;;7.98;100.00;101247.97;5012366;28;20219;-77
2022/03/17 06:52:57;;;;;;;0.10;0.10;;;8.30;99.90;;;8.06;100.00;101249.13;4993576;28;20219;-77
2022/03/17 06:55:25;;;;;;;0.17;0.17;;;8.40;99.90;;;8.03;100.00;101256.91;5012744;28;20207;-77
2022/03/17 06:57:53;;;;;;;0.20;0.20;;;8.30;99.90;;;7.98;100.00;101267.31;5013108;28;20235;-77
2022/03/17 07:00:21;;;;;;;0.20;0.20;;;8.30;99.90;;;7.99;100.00;101278.72;5012132;28;20215;-78
2022/03/17 07:02:49;;;;;;;0.20;0.20;;;8.30;99.90;;;7.93;100.00;101291.69;5012415;28;20207;-77
2022/03/17 07:05:18;;;;;;;0.20;0.20;;;8.20;99.90;;;8.01;100.00;101295.47;4996076;28;20212;-76
2022/03/17 07:07:46;;;;;;;0.10;0.10;;;8.20;99.90;;;8.09;100.00;101294.00;5012338;28;20212;-77
2022/03/17 07:10:15;;;;;;;1.05;1.05;;;8.20;99.90;;;8.00;100.00;101317.41;5012354;28;20231;-77
2022/03/17 07:12:44;;;;;;;0.20;0.20;;;8.20;99.90;;;8.04;100.00;101324.56;4995023;28;20231;-77
2022/03/17 07:15:12;;;;;;;0.13;0.13;;;8.20;99.90;;;8.17;100.00;101329.41;5008474;28;20204;-76
2022/03/17 07:17:41;;;;;;;0.10;0.10;;;8.20;99.90;;;8.22;100.00;101316.38;5004589;28;20231;-76
2022/03/17 07:20:16;;;;;;;0.55;0.28;;;8.20;99.90;;;8.21;100.00;101304.94;5005288;28;20298;-76
2022/03/17 07:22:50;;;;;;;0.10;0.10;;;8.30;99.90;;;8.27;100.00;101314.78;5006138;28;20214;-76
2022/03/17 07:25:19;;;;;;;0.20;0.20;;;8.30;99.90;;;8.30;100.00;101320.16;4993392;28;20207;-76
2022/03/17 07:27:48;;;;;;;0.10;0.10;;;8.40;99.90;;;8.32;100.00;101318.44;5009962;28;20208;-76
2022/03/17 07:30:19;;;;;;;0.10;0.10;;;8.50;99.90;;;8.33;100.00;101315.00;4988969;28;20598;-76
2022/03/17 07:32:55;;;;;;;0.10;0.10;;;8.50;99.90;;;8.36;100.00;101314.22;4991117;28;20215;-77
2022/03/17 07:35:25;;;;;;;0.63;0.57;;;8.50;99.90;;;8.44;100.00;101315.34;5008531;28;20195;-77
2022/03/17 07:37:53;;;;;;;0.20;0.20;;;8.50;99.90;;;8.52;100.00;101322.66;5009858;28;20232;-77
2022/03/17 07:40:21;;;;;;;0.10;0.10;;;8.60;99.90;;;8.58;100.00;101343.03;5005486;28;20243;-76
2022/03/17 07:42:49;;;;;;;0.40;0.40;;;8.60;99.90;;;8.58;100.00;101349.22;5003170;28;20230;-76
2022/03/17 07:45:18;;;;;;;0.30;0.30;;;8.70;99.90;;;8.61;100.00;101344.03;5001832;28;20220;-77
2022/03/17 07:47:55;;;;;;;0.20;0.20;;;8.70;99.90;;;8.68;100.00;101325.75;5002596;28;20208;-77
2022/03/17 07:50:23;;;;;;;0.10;0.10;;;8.60;99.90;;;8.79;100.00;101329.63;5006172;28;20224;-77
2022/03/17 07:52:51;;;;;;;0.20;0.20;;;8.80;99.90;;;8.87;100.00;101330.75;5004684;28;20220;-77
2022/03/17 07:55:19;;;;;;;0.20;0.20;;;8.80;99.90;;;8.91;100.00;101333.53;5005895;28;20581;-77
2022/03/17 07:57:48;;;;;;;0.57;0.57;;;8.90;99.90;;;8.96;100.00;101326.63;4987470;28;20689;-77
2022/03/17 08:00:16;;;;;;;0.20;0.20;;;8.90;99.90;;;9.08;100.00;101346.31;5004272;28;20231;-77
2022/03/17 08:02:44;;;;;;;0.25;0.25;;;9.00;99.90;;;9.05;100.00;101336.56;4985057;28;20200;-76
2022/03/17 08:05:14;;;;;;;0.20;0.20;;;9.10;99.90;;;9.14;100.00;101346.53;4988458;28;20200;-76
2022/03/17 08:07:42;;;;;;;0.30;0.30;;;9.10;99.90;;;9.21;100.00;101345.88;5003944;28;20212;-77
2022/03/17 08:10:11;;;;;;;0.10;0.10;;;9.20;99.90;;;9.25;100.00;101322.25;5003179;28;20231;-76
2022/03/17 08:12:46;;;;;;;0.30;0.30;;;9.20;99.90;;;9.34;100.00;101312.78;5003377;28;20222;-76
2022/03/17 08:15:16;;;;;;;0.20;0.20;;;9.30;99.90;;;9.39;100.00;101321.72;4985275;28;20207;-77
2022/03/17 08:17:44;;;;;;;0.20;0.20;;;9.40;99.90;;;9.42;100.00;101316.53;5000881;28;20228;-78
2022/03/17 08:20:13;;;;;;;0.47;0.47;;;9.40;99.90;;;9.51;100.00;101324.72;5002998;28;20239;-76
2022/03/17 08:22:42;;;;;;;0.20;0.20;;;9.50;99.90;;;9.55;100.00;101329.22;5003701;28;20234;-76
2022/03/17 08:25:10;;;;;;;0.10;0.10;;;9.60;99.90;;;9.55;100.00;101302.81;4986546;28;20211;-77
2022/03/17 08:27:40;;;;;;;0.20;0.20;;;9.70;99.90;;;9.62;100.00;101299.50;5004655;28;20200;-76
2022/03/17 08:30:09;;;;;;;0.10;0.10;;;9.80;99.90;;;9.65;100.00;101289.00;5001752;28;20227;-76
2022/03/17 08:32:40;;;;;;;0.10;0.10;;;9.80;99.90;;;9.71;100.00;101288.28;5004226;28;20203;-78
2022/03/17 08:35:14;;;;;;;0.20;0.20;;;9.80;99.90;;;9.75;100.00;101292.78;5004484;28;20211;-77
2022/03/17 08:37:45;;;;;;;0.10;0.10;;;9.90;99.90;;;9.86;100.00;101310.69;5002951;28;20254;-77
2022/03/17 08:40:15;;;;;;;0.10;0.10;;;10.00;99.90;;;9.79;100.00;101268.22;5004646;28;20239;-76
2022/03/17 08:42:43;;;;;;;0.10;0.10;;;10.10;99.90;;;9.90;100.00;101275.56;5056653;22;20230;-76
2022/03/17 08:50:47;;;;;;;0.10;0.10;;;10.30;99.90;;;10.01;100.00;101275.84;5042291;28;20218;-76
2022/03/17 08:53:16;;;;;;;0.30;0.30;;;10.40;99.90;;;10.07;100.00;101264.53;5042697;28;20579;-76
2022/03/17 08:55:44;;;;;;;0.38;0.38;;;10.30;99.90;;;10.20;100.00;101283.38;5044741;28;20218;-76
2022/03/17 08:58:12;;;;;;;0.10;0.10;;;10.40;99.90;;;10.31;100.00;101314.47;5041748;28;20222;-75
2022/03/17 09:00:41;;;;;;;0.22;0.22;;;10.50;99.90;;;10.34;100.00;101344.53;5047212;28;20229;-75
2022/03/17 09:03:09;;;;;;;0.10;0.10;;;10.60;99.90;;;10.11;100.00;101262.00;5051351;28;20214;-75
2022/03/17 09:05:38;;;;;;;0.22;0.22;;;10.70;99.90;;;10.22;100.00;101289.59;5053303;28;20206;-75
2022/03/17 09:08:07;;;;;;;0.10;0.10;;;10.70;99.90;;;10.19;100.00;101275.38;5047277;28;20206;-76
2022/03/17 09:10:38;;;;;;;0.00;0.00;;;10.70;99.90;;;10.30;100.00;101294.19;5049867;28;20227;-75
2022/03/17 09:13:10;;;;;;;0.47;0.47;;;10.80;99.90;;;10.22;100.00;101272.84;5049832;28;20554;-75
2022/03/17 09:15:40;;;;;;;0.30;0.30;;;10.80;99.90;;;10.27;100.00;101280.03;5049192;28;20206;-76
2022/03/17 09:18:12;;;;;;;0.10;0.10;;;10.80;99.90;;;10.35;100.00;101300.47;5048070;28;20218;-76
2022/03/17 09:20:41;;;;;;;0.10;0.10;;;10.90;99.90;;;10.46;100.00;101315.75;5045818;28;20231;-75
2022/03/17 09:23:09;;;;;;;0.10;0.10;;;11.00;99.90;;;10.33;100.00;101276.63;5048518;28;20198;-75
2022/03/17 09:25:38;;;;;;;0.05;0.05;;;11.00;99.90;;;10.56;100.00;101340.69;5045491;28;20585;-75
2022/03/17 09:28:10;;;;;;;0.10;0.10;;;11.10;99.90;;;10.42;100.00;101291.84;5046300;28;20213;-75
2022/03/17 09:30:41;;;;;;;0.00;0.00;;;11.20;99.90;;;10.31;100.00;101251.03;5046634;28;20226;-75
2022/03/17 09:33:10;;;;;;;0.10;0.10;;;11.30;99.90;;;10.40;100.00;101272.38;5047707;28;20206;-76
2022/03/17 09:35:38;;;;;;;0.20;0.20;;;11.30;99.90;;;10.63;100.00;101321.44;5046936;28;20195;-76
2022/03/17 09:38:07;;;;;;;0.00;0.00;;;11.30;99.90;;;10.36;100.00;101249.38;5048256;28;20241;-76
2022/03/17 09:40:36;;;;;;;0.25;0.25;;;11.30;99.90;;;10.47;100.00;101277.00;5048416;28;20221;-75
2022/03/17 09:43:21;;;;;;;0.20;0.20;;;11.10;99.90;;;10.59;100.00;101309.00;5045524;28;20217;-75
2022/03/17 09:45:53;;;;;;;0.30;0.30;;;11.20;99.90;;;10.90;100.00;101367.03;5048809;28;20203;-75
2022/03/17 09:48:24;;;;;;;0.10;0.10;;;11.30;99.90;;;10.79;100.00;101310.34;5047575;28;20203;-74
2022/03/17 09:50:58;;;;;;;0.10;0.10;;;11.40;99.90;;;10.85;100.00;101301.66;5046960;28;20222;-75
2022/03/17 09:53:30;;;;;;;0.00;0.00;;;11.40;99.90;;;10.76;100.00;101257.38;5047032;28;20198;-76
2022/03/17 09:55:58;;;;;;;0.10;0.10;;;11.50;99.90;;;10.77;100.00;101295.28;5047657;28;20199;-75
2022/03/17 09:58:26;;;;;;;0.10;0.10;;;11.40;99.90;;;10.71;100.00;101259.00;5045212;28;20223;-76
2022/03/17 10:00:55;;;;;;;0.10;0.10;;;11.30;99.90;;;10.97;100.00;101314.25;5044180;28;20480;-75
2022/03/17 10:03:26;;;;;;;0.10;0.10;;;11.40;99.90;;;10.92;100.00;101279.75;5048842;28;20205;-76
2022/03/17 10:06:02;;;;;;;0.10;0.10;;;11.50;99.90;;;11.17;100.00;101324.41;5046042;28;20214;-76
2022/03/17 10:08:31;;;;;;;0.03;0.03;;;11.60;99.90;;;11.15;100.00;101307.59;5049382;28;20197;-76
2022/03/17 10:10:59;;;;;;;0.00;0.00;;;11.80;99.90;;;11.14;100.00;101300.50;5050975;28;20227;-76
2022/03/17 10:13:28;;;;;;;0.10;0.10;;;11.90;99.90;;;11.14;100.00;101279.31;5051473;28;20199;-75
2022/03/17 10:16:08;;;;;;;0.00;0.00;;;11.90;99.90;;;11.15;100.00;101280.22;5034970;28;20207;-76
2022/03/17 10:18:38;;;;;;;0.40;0.40;;;11.90;99.90;;;11.04;100.00;101268.53;5050449;28;20222;-76
2022/03/17 10:21:17;;;;;;;0.10;0.10;;;11.80;99.90;;;11.13;100.00;101269.59;5050248;28;20226;-75
2022/03/17 10:24:00;;;;;;;0.17;0.17;;;11.80;99.90;;;11.23;99.72;101276.84;5051021;28;20210;-76
2022/03/17 10:26:51;;;;;;;0.20;0.20;;;11.90;99.90;;;11.22;99.90;101274.19;5047781;28;20202;-75
2022/03/17 10:29:25;;;;;;;0.00;0.00;;;12.00;99.90;;;11.09;99.48;101243.03;5050815;28;20222;-75
2022/03/17 10:32:09;;;;;;;0.10;0.10;;;11.90;99.90;;;11.15;100.00;101275.81;5052031;28;20208;-75
2022/03/17 10:34:46;;;;;;;0.10;0.10;;;11.80;99.90;;;11.00;98.78;101225.22;5048167;28;20202;-77
2022/03/17 10:37:16;;;;;;;0.00;0.00;;;11.70;99.90;;;11.02;99.65;101239.38;5051820;28;20194;-76
2022/03/17 10:39:49;;;;;;;0.13;0.13;;;11.60;99.90;;;11.09;100.00;101265.09;5049695;28;20245;-76
2022/03/17 10:42:18;;;;;;;0.00;0.00;;;11.70;99.90;;;11.05;98.92;101241.19;5053914;28;20202;-75
2022/03/17 10:44:55;;;;;;;0.20;0.20;;;11.60;99.90;;;11.12;100.00;101265.16;5051924;28;20206;-76
2022/03/17 10:47:33;;;;;;;0.20;0.20;;;11.60;99.90;;;10.98;98.85;101224.28;5050552;28;20206;-75
2022/03/17 10:50:22;;;;;;;0.20;0.20;;;11.70;99.90;;;11.05;99.64;101250.03;5050339;28;20214;-76